Time;durP1;ratioP1;P1;durP2;ratioP2;P2;SDS_P1;SDS_P2;PMS_P1;PMS_P2;Temp;Humidity;BMP_temperature;BMP_pressure;BME280_temperature;BME280_humidity;BME280_pressure;Samples;Min_cycle;Max_cycle;Signal;HPM_P1;HPM_P2
2022/06/07 00:01:30;;;;;;;;;2.00;2.00;;;;;18.25;57.88;100701.81;4976682;28;45227;-70
2022/06/07 00:03:55;;;;;;;;;4.00;4.00;;;;;18.25;58.53;100701.81;4978347;28;45216;-70
2022/06/07 00:06:20;;;;;;;;;2.00;2.00;;;;;18.25;58.29;100694.69;4975822;28;45234;-71
2022/06/07 00:08:46;;;;;;;;;2.75;2.00;;;;;17.98;58.70;100646.00;4975723;28;45383;-70
2022/06/07 00:11:11;;;;;;;;;4.00;2.25;;;;;18.25;58.91;100691.16;4976943;28;45395;-70
2022/06/07 00:13:37;;;;;;;;;2.00;2.00;;;;;18.24;58.92;100694.78;4974604;27;45782;-70
2022/06/07 00:16:02;;;;;;;;;1.75;1.75;;;;;18.22;59.28;100697.56;4974230;28;45658;-69
2022/06/07 00:18:28;;;;;;;;;3.75;2.00;;;;;18.19;59.01;100697.78;4972514;28;48150;-70
2022/06/07 00:20:53;;;;;;;;;2.00;1.00;;;;;18.01;59.54;100662.66;4975087;28;45375;-72
2022/06/07 00:23:19;;;;;;;;;1.00;1.00;;;;;18.17;59.78;100697.06;4974783;28;45337;-71
2022/06/07 00:25:48;;;;;;;;;1.00;1.00;;;;;18.12;60.03;100680.56;4974155;28;45271;-72
2022/06/07 00:28:14;;;;;;;;;1.00;1.00;;;;;18.10;60.26;100685.13;4973954;28;45381;-70
2022/06/07 00:30:39;;;;;;;;;2.00;2.00;;;;;18.07;60.78;100678.19;4975044;28;45217;-70
2022/06/07 00:33:05;;;;;;;;;3.25;1.00;;;;;18.07;61.11;100672.03;4973063;28;45242;-69
2022/06/07 00:35:31;;;;;;;;;3.50;2.50;;;;;18.04;60.87;100674.91;4974854;28;45264;-71
2022/06/07 00:37:58;;;;;;;;;2.00;1.00;;;;;18.02;61.20;100671.47;4972828;28;48640;-70
2022/06/07 00:40:23;;;;;;;;;1.75;1.75;;;;;18.08;61.52;100673.75;4974389;28;45325;-72
2022/06/07 00:42:49;;;;;;;;;2.00;2.00;;;;;18.06;61.19;100670.34;4977079;28;45544;-70
2022/06/07 00:45:17;;;;;;;;;2.00;1.00;;;;;18.07;61.03;100661.41;4973297;28;45503;-70
2022/06/07 00:47:43;;;;;;;;;4.00;3.00;;;;;18.06;61.45;100654.38;4979077;28;45267;-73
2022/06/07 00:50:21;;;;;;;;;2.00;2.00;;;;;18.09;61.52;100659.47;4974522;28;45264;-73
2022/06/07 00:52:46;;;;;;;;;1.00;1.00;;;;;18.08;61.72;100652.44;4974829;28;45265;-72
2022/06/07 00:55:12;;;;;;;;;1.00;1.00;;;;;18.02;61.70;100652.84;4975487;28;45343;-71
2022/06/07 00:57:38;;;;;;;;;2.00;2.00;;;;;17.96;61.83;100649.63;4974301;28;47497;-72
2022/06/07 01:00:07;;;;;;;;;1.50;1.00;;;;;17.91;62.26;100648.28;4975123;28;45249;-69
2022/06/07 01:02:33;;;;;;;;;1.00;1.00;;;;;17.87;62.39;100650.28;4975386;28;45260;-69
2022/06/07 01:04:58;;;;;;;;;1.00;1.00;;;;;17.83;62.78;100640.81;4975597;28;45216;-70
2022/06/07 01:12:52;;;;;;;;;1.00;1.00;;;;;17.79;63.19;100639.31;4974201;28;45331;-70
2022/06/07 01:15:17;;;;;;;;;1.50;1.50;;;;;17.77;63.19;100633.25;4973536;28;45305;-68
2022/06/07 01:17:43;;;;;;;;;3.00;1.50;;;;;17.77;63.48;100634.13;4973228;28;45466;-71
2022/06/07 01:20:09;;;;;;;;;3.25;2.00;;;;;17.80;63.32;100633.03;4974111;28;45199;-72
2022/06/07 01:22:34;;;;;;;;;4.00;1.00;;;;;17.80;63.58;100628.59;4974879;28;45247;-71
2022/06/07 01:25:00;;;;;;;;;3.00;1.25;;;;;17.77;63.37;100626.16;4976951;28;46003;-69
2022/06/07 01:27:25;;;;;;;;;1.00;1.00;;;;;17.69;63.60;100617.00;4973878;28;45281;-70
2022/06/07 01:29:51;;;;;;;;;2.75;2.75;;;;;17.76;63.76;100619.13;4973315;28;45244;-73
2022/06/07 01:32:18;;;;;;;;;2.00;2.00;;;;;17.80;63.78;100633.91;4974858;28;45281;-71
2022/06/07 01:34:44;;;;;;;;;4.25;4.25;;;;;17.79;63.62;100624.22;4972438;28;45521;-71
2022/06/07 01:37:13;;;;;;;;;1.75;1.75;;;;;17.79;63.87;100626.88;4976010;28;46046;-72
2022/06/07 01:42:27;;;;;;;;;2.00;2.00;;;;;17.82;63.98;100633.78;4976160;28;45379;-69
2022/06/07 01:44:53;;;;;;;;;5.00;2.00;;;;;17.81;63.97;100627.63;4978959;28;45431;-69
2022/06/07 01:47:24;;;;;;;;;3.00;3.00;;;;;17.81;63.94;100630.28;4979523;28;46278;-70
2022/06/07 01:49:50;;;;;;;;;1.75;1.75;;;;;17.80;64.16;100633.03;4994667;28;45296;-68
2022/06/07 01:52:19;;;;;;;;;3.75;2.00;;;;;17.78;64.18;100635.84;4974517;28;45384;-70
2022/06/07 01:54:44;;;;;;;;;2.00;2.00;;;;;17.73;64.42;100623.78;4976704;28;45556;-68
2022/06/07 01:57:10;;;;;;;;;2.00;2.00;;;;;17.70;64.37;100629.34;4978580;28;45515;-69
2022/06/07 01:59:35;;;;;;;;;2.00;2.00;;;;;17.69;64.42;100625.84;4978047;28;45209;-70
2022/06/07 02:02:02;;;;;;;;;4.75;2.50;;;;;17.67;64.46;100617.94;4975740;28;45354;-70
2022/06/07 02:04:29;;;;;;;;;3.00;3.00;;;;;17.65;64.87;100617.19;4974994;28;45579;-70
2022/06/07 02:06:54;;;;;;;;;2.00;2.00;;;;;17.67;64.96;100617.94;4977690;28;46894;-72
2022/06/07 02:09:20;;;;;;;;;2.75;2.75;;;;;17.62;65.12;100598.78;4975979;28;45335;-71
2022/06/07 02:11:46;;;;;;;;;3.00;3.00;;;;;17.70;65.22;100602.72;4974611;28;45258;-70
2022/06/07 02:14:12;;;;;;;;;2.75;2.00;;;;;17.72;65.10;100603.47;4975672;27;45662;-69
2022/06/07 02:16:38;;;;;;;;;3.00;3.00;;;;;17.74;64.99;100609.53;4976321;28;46207;-69
2022/06/07 02:19:04;;;;;;;;;1.75;1.75;;;;;17.76;64.97;100599.63;4976813;28;45302;-69
2022/06/07 02:21:31;;;;;;;;;4.75;3.00;;;;;17.79;64.94;100602.94;4976944;28;45272;-69
2022/06/07 02:23:57;;;;;;;;;4.00;2.00;;;;;17.79;64.75;100583.47;4976372;28;45466;-71
2022/06/07 02:26:25;;;;;;;;;2.00;2.00;;;;;17.84;64.68;100588.47;4976612;28;45271;-71
2022/06/07 02:29:12;;;;;;;;;3.00;2.00;;;;;17.83;64.76;100578.78;4977292;28;45284;-71
2022/06/07 02:31:42;;;;;;;;;3.25;3.00;;;;;17.86;64.90;100587.38;4976294;28;45365;-70
2022/06/07 02:34:08;;;;;;;;;2.00;2.00;;;;;17.86;65.21;100590.03;4976839;27;45434;-71
2022/06/07 02:36:36;;;;;;;;;3.00;3.00;;;;;17.84;65.01;100586.63;4975571;28;46844;-72
2022/06/07 02:39:02;;;;;;;;;3.25;3.25;;;;;17.84;64.99;100585.81;4975341;28;45413;-70
2022/06/07 02:41:31;;;;;;;;;4.00;2.00;;;;;17.84;65.19;100583.97;4974461;28;45494;-70
2022/06/07 02:43:57;;;;;;;;;3.50;3.50;;;;;17.84;65.20;100583.97;4975938;28;45311;-72
2022/06/07 02:46:22;;;;;;;;;3.00;3.00;;;;;17.88;65.21;100577.47;4974295;28;46025;-70
2022/06/07 02:48:47;;;;;;;;;2.00;2.00;;;;;17.75;65.18;100556.25;4976566;28;45256;-72
2022/06/07 02:51:13;;;;;;;;;2.25;2.25;;;;;17.78;65.08;100563.13;4976550;28;45252;-71
2022/06/07 02:53:38;;;;;;;;;2.75;2.00;;;;;17.82;65.42;100569.94;4976260;28;45202;-71
2022/06/07 02:56:04;;;;;;;;;5.00;3.00;;;;;17.54;65.19;100520.53;4975736;28;45374;-71
2022/06/07 02:58:31;;;;;;;;;4.75;3.00;;;;;17.83;65.30;100566.31;4976851;28;45869;-72
2022/06/07 03:00:59;;;;;;;;;4.00;2.50;;;;;17.85;65.40;100561.72;4978011;28;45334;-72
2022/06/07 03:03:27;;;;;;;;;3.00;3.00;;;;;17.83;65.44;100562.81;4974578;28;45550;-72
2022/06/07 03:05:54;;;;;;;;;4.00;2.75;;;;;17.83;65.47;100554.84;4975908;28;46326;-71
2022/06/07 03:08:20;;;;;;;;;1.25;1.25;;;;;17.84;65.72;100552.06;4977008;28;45247;-72
2022/06/07 03:10:46;;;;;;;;;4.25;3.25;;;;;17.88;65.37;100558.03;4978328;28;45400;-71
2022/06/07 03:13:13;;;;;;;;;3.00;3.00;;;;;17.91;65.44;100555.97;4975613;28;45315;-72
2022/06/07 03:15:39;;;;;;;;;4.50;3.00;;;;;17.94;65.46;100550.44;4975298;27;47450;-72
2022/06/07 03:18:05;;;;;;;;;2.75;2.75;;;;;17.91;65.37;100545.34;4975778;28;45523;-72
2022/06/07 03:20:31;;;;;;;;;0.00;0.00;;;;;17.91;65.29;100547.16;4976234;28;45366;-73
2022/06/07 03:22:56;;;;;;;;;4.00;4.00;;;;;17.95;65.50;100549.47;4977375;28;45465;-72
2022/06/07 03:25:23;;;;;;;;;5.75;3.75;;;;;17.98;65.46;100555.53;4976318;28;46344;-72
2022/06/07 03:27:49;;;;;;;;;3.75;3.00;;;;;17.98;65.46;100551.06;4975982;28;45313;-71
2022/06/07 03:30:14;;;;;;;;;3.50;3.25;;;;;17.98;65.47;100550.22;4977042;28;45161;-72
2022/06/07 03:32:40;;;;;;;;;3.25;3.00;;;;;17.94;65.70;100549.59;4976292;28;45586;-71
2022/06/07 03:35:05;;;;;;;;;4.50;3.00;;;;;17.96;65.99;100545.84;4975016;28;45546;-72
2022/06/07 03:37:31;;;;;;;;;3.00;3.00;;;;;18.00;65.71;100549.19;4974985;28;45446;-71
2022/06/07 03:39:56;;;;;;;;;4.25;4.25;;;;;18.02;65.69;100547.25;4975412;28;45323;-72
2022/06/07 03:42:21;;;;;;;;;4.00;4.00;;;;;17.90;65.75;100527.66;4975913;28;45249;-72
2022/06/07 03:44:48;;;;;;;;;4.00;3.00;;;;;18.04;65.70;100553.31;4975932;28;45936;-71
2022/06/07 03:47:23;;;;;;;;;3.50;3.50;;;;;18.06;65.91;100558.56;4973469;28;45428;-72
2022/06/07 03:49:48;;;;;;;;;5.00;3.00;;;;;18.03;65.71;100553.44;4976183;28;45334;-72
2022/06/07 03:52:15;;;;;;;;;4.00;4.00;;;;;18.03;66.30;100556.13;4977530;28;45401;-72
2022/06/07 03:54:41;;;;;;;;;3.50;3.50;;;;;18.03;66.59;100556.13;4980152;28;46270;-71
2022/06/07 03:57:08;;;;;;;;;4.00;4.00;;;;;18.01;66.93;100560.66;4974825;28;45456;-69
2022/06/07 03:59:33;;;;;;;;;3.00;3.00;;;;;17.99;66.79;100557.22;4974338;28;45228;-70
2022/06/07 04:01:59;;;;;;;;;3.75;3.75;;;;;18.02;67.20;100567.69;4975191;28;45221;-70
2022/06/07 04:04:25;;;;;;;;;8.25;5.00;;;;;17.99;66.89;100563.41;4975454;28;46132;-70
2022/06/07 04:09:39;;;;;;;;;5.00;5.00;;;;;17.98;66.98;100555.53;4976636;28;45331;-70
2022/06/07 04:12:06;;;;;;;;;4.00;4.00;;;;;17.95;67.30;100557.44;4976945;28;45265;-69
2022/06/07 04:14:32;;;;;;;;;4.00;4.00;;;;;17.89;67.62;100562.38;4974680;28;46295;-67
2022/06/07 04:16:57;;;;;;;;;4.75;4.75;;;;;17.86;67.58;100558.13;4973734;28;45420;-69
2022/06/07 04:19:22;;;;;;;;;3.00;3.00;;;;;17.86;67.97;100559.94;4973746;28;48015;-69
2022/06/07 04:21:47;;;;;;;;;5.00;5.00;;;;;17.83;67.96;100555.69;4974975;28;45505;-68
2022/06/07 04:24:13;;;;;;;;;3.00;3.00;;;;;17.82;68.41;100559.28;4973333;28;53797;-68
2022/06/07 04:26:38;;;;;;;;;4.75;4.75;;;;;17.79;68.54;100559.50;4974203;28;45393;-70
2022/06/07 04:29:03;;;;;;;;;6.00;4.50;;;;;17.82;69.02;100567.28;4976173;28;45265;-70
2022/06/07 04:31:29;;;;;;;;;4.75;4.75;;;;;17.80;70.22;100569.19;4974200;28;45343;-69
2022/06/07 04:33:57;;;;;;;;;6.50;5.00;;;;;17.72;71.05;100556.47;4975945;28;46133;-72
2022/06/07 04:36:25;;;;;;;;;6.00;4.00;;;;;17.69;71.86;100558.47;4976536;28;45153;-72
2022/06/07 04:38:52;;;;;;;;;5.00;5.00;;;;;17.64;72.31;100561.47;4975956;28;45274;-70
2022/06/07 04:41:20;;;;;;;;;4.75;4.75;;;;;17.62;72.50;100558.91;4974963;28;45237;-71
2022/06/07 04:43:50;;;;;;;;;5.00;3.50;;;;;17.62;73.04;100558.91;4975559;28;46171;-70
2022/06/07 04:46:16;;;;;;;;;5.00;5.00;;;;;17.60;73.26;100558.16;4974172;28;45874;-69
2022/06/07 04:48:44;;;;;;;;;5.75;5.75;;;;;17.56;73.39;100554.00;4973788;28;45409;-70
2022/06/07 04:51:15;;;;;;;;;4.25;4.25;;;;;17.57;73.57;100565.53;4973713;28;45296;-68
2022/06/07 04:54:09;;;;;;;;;4.50;4.50;;;;;17.53;74.32;100567.53;4974198;28;45469;-69
2022/06/07 04:59:30;;;;;;;;;3.75;3.75;;;;;17.45;75.36;100553.91;4976402;28;45422;-69
2022/06/07 05:01:56;;;;;;;;;4.00;4.00;;;;;17.41;75.14;100552.44;4974521;28;45286;-71
2022/06/07 05:04:21;;;;;;;;;6.00;4.00;;;;;17.36;75.77;100552.72;4974242;28;46198;-68
2022/06/07 05:06:47;;;;;;;;;5.00;5.00;;;;;17.34;75.85;100563.50;4975474;28;45378;-70
2022/06/07 05:09:17;;;;;;;;;6.25;6.25;;;;;17.29;76.07;100562.97;4976438;28;45214;-70
2022/06/07 05:11:46;;;;;;;;;5.50;4.75;;;;;17.27;76.65;100564.00;4975536;28;45535;-71
2022/06/07 05:14:11;;;;;;;;;6.50;6.00;;;;;17.21;77.19;100552.84;4976360;28;46694;-70
2022/06/07 05:16:39;;;;;;;;;5.00;5.00;;;;;17.25;76.70;100557.94;4975994;28;45272;-70
2022/06/07 05:19:05;;;;;;;;;5.25;5.25;;;;;17.25;76.72;100550.84;4973586;28;45398;-69
2022/06/07 05:21:30;;;;;;;;;6.00;6.00;;;;;17.25;76.74;100548.19;4973550;28;45387;-71
2022/06/07 05:23:56;;;;;;;;;5.75;4.75;;;;;17.25;76.67;100542.88;4973685;28;45297;-71
2022/06/07 05:26:24;;;;;;;;;5.75;5.75;;;;;17.30;76.48;100554.03;4973761;28;45371;-71
2022/06/07 05:28:49;;;;;;;;;5.00;5.00;;;;;17.30;76.21;100553.16;4974997;28;45328;-71
2022/06/07 05:31:15;;;;;;;;;5.75;5.75;;;;;17.30;76.43;100550.50;4975943;28;45584;-71
2022/06/07 05:33:41;;;;;;;;;3.50;3.50;;;;;17.31;76.78;100552.19;4974319;28;46095;-71
2022/06/07 05:36:06;;;;;;;;;5.75;4.50;;;;;17.32;76.78;100553.91;4974193;28;45330;-71
2022/06/07 05:38:32;;;;;;;;;4.00;4.00;;;;;17.35;76.32;100553.69;4974860;28;45427;-71
2022/06/07 05:40:57;;;;;;;;;5.00;5.00;;;;;17.32;76.31;100560.09;4974276;28;45323;-70
2022/06/07 05:43:23;;;;;;;;;3.75;3.75;;;;;17.38;76.38;100564.13;4972830;28;46177;-72
2022/06/07 05:45:53;;;;;;;;;4.00;4.00;;;;;17.42;75.89;100573.56;4988179;28;45172;-69
2022/06/07 05:48:19;;;;;;;;;3.00;3.00;;;;;17.45;75.57;100567.22;4973235;28;45430;-73
2022/06/07 05:50:48;;;;;;;;;5.00;3.25;;;;;17.31;75.55;100542.44;4973331;28;45276;-71
2022/06/07 05:53:14;;;;;;;;;3.50;3.50;;;;;17.48;75.44;100567.00;4973150;28;45245;-73
2022/06/07 05:55:40;;;;;;;;;4.00;4.00;;;;;17.54;75.50;100571.06;4972523;28;45357;-72
2022/06/07 05:58:05;;;;;;;;;3.00;3.00;;;;;17.52;74.91;100558.72;4973313;28;45441;-70
2022/06/07 06:00:31;;;;;;;;;4.25;3.50;;;;;17.61;75.04;100565.19;4972320;28;45635;-70
2022/06/07 06:02:56;;;;;;;;;4.25;4.25;;;;;17.67;74.74;100570.06;4972308;28;46147;-72
2022/06/07 06:05:21;;;;;;;;;3.00;3.00;;;;;17.72;74.59;100564.44;4971858;28;45412;-72
2022/06/07 06:10:39;;;;;;;;;5.00;2.75;;;;;17.75;73.81;100569.53;4960243;28;45318;-70
2022/06/07 06:13:05;;;;;;;;;4.00;4.00;;;;;17.78;73.65;100571.97;4976364;28;45317;-70
2022/06/07 06:15:31;;;;;;;;;3.00;2.25;;;;;17.76;73.35;100573.91;4972389;28;45261;-70
2022/06/07 06:17:56;;;;;;;;;3.00;3.00;;;;;17.77;73.61;100569.41;4972883;28;45299;-68
2022/06/07 06:20:22;;;;;;;;;1.75;1.75;;;;;17.77;73.20;100580.06;4972471;28;45252;-70
2022/06/07 06:22:49;;;;;;;;;2.25;2.25;;;;;17.77;73.50;100578.25;4973243;28;45485;-70
2022/06/07 06:25:14;;;;;;;;;4.00;4.00;;;;;17.80;73.43;100585.16;4974481;28;45401;-70
2022/06/07 06:27:39;;;;;;;;;4.00;4.00;;;;;17.79;73.80;100588.78;4974491;28;45430;-70
2022/06/07 06:30:07;;;;;;;;;3.00;3.00;;;;;17.86;73.75;100592.69;4974619;28;45523;-69
2022/06/07 06:32:33;;;;;;;;;4.50;4.50;;;;;17.91;73.97;100590.56;4974175;28;45311;-71
2022/06/07 06:34:58;;;;;;;;;4.75;4.00;;;;;18.02;74.33;100594.31;4975522;28;45272;-71
2022/06/07 06:37:24;;;;;;;;;5.25;3.25;;;;;18.18;73.98;100592.28;4978175;28;45552;-73
2022/06/07 06:39:50;;;;;;;;;5.75;4.00;;;;;18.24;73.48;100599.81;4978038;28;45422;-73
2022/06/07 06:42:15;;;;;;;;;2.75;2.75;;;;;18.30;73.13;100603.81;4975657;27;45688;-75
2022/06/07 06:44:40;;;;;;;;;3.00;3.00;;;;;18.34;72.79;100601.81;4976606;28;45269;-75
2022/06/07 06:47:07;;;;;;;;;4.25;3.25;;;;;18.41;72.63;100605.72;4975013;28;45224;-74
2022/06/07 06:49:33;;;;;;;;;4.00;4.00;;;;;18.50;72.60;100598.84;4974518;28;45348;-73
2022/06/07 06:51:59;;;;;;;;;3.00;3.00;;;;;18.58;72.02;100596.50;4972712;28;47330;-72
2022/06/07 06:54:25;;;;;;;;;3.50;3.50;;;;;18.57;72.00;100586.81;4974294;28;45445;-76
2022/06/07 06:56:50;;;;;;;;;7.25;4.25;;;;;18.72;71.75;100598.13;4974738;28;45401;-73
2022/06/07 06:59:17;;;;;;;;;7.25;4.75;;;;;18.78;71.42;100597.66;4974558;28;45435;-73
2022/06/07 07:01:43;;;;;;;;;3.50;3.50;;;;;18.92;71.14;100609.09;4976202;28;45403;-73
2022/06/07 07:04:19;;;;;;;;;6.00;3.00;;;;;19.12;70.67;100607.63;4974326;28;45456;-77
2022/06/07 07:06:46;;;;;;;;;4.25;3.00;;;;;19.27;68.97;100617.13;4973816;28;45267;-72
2022/06/07 07:09:13;;;;;;;;;1.25;0.00;;;;;19.32;69.03;100607.91;4974247;28;45488;-73
2022/06/07 07:11:42;;;;;;;;;3.00;1.00;;;;;19.32;69.09;100615.91;4974548;28;45409;-73
2022/06/07 07:14:09;;;;;;;;;2.00;2.00;;;;;19.46;68.86;100617.53;4973921;28;45381;-73
2022/06/07 07:16:42;;;;;;;;;4.75;3.00;;;;;19.61;68.24;100613.66;4974011;28;45393;-72
2022/06/07 07:19:08;;;;;;;;;1.50;1.50;;;;;19.77;67.49;100620.47;4978094;28;45489;-71
2022/06/07 07:21:38;;;;;;;;;2.00;2.00;;;;;19.92;67.40;100616.63;4977267;28;45561;-72
2022/06/07 07:24:07;;;;;;;;;1.00;1.00;;;;;20.09;66.70;100609.94;4977000;28;45334;-71
2022/06/07 07:26:33;;;;;;;;;1.50;0.00;;;;;20.21;65.50;100615.28;4974414;28;45323;-73
2022/06/07 07:28:59;;;;;;;;;3.00;1.50;;;;;20.13;65.03;100624.75;4974068;28;45229;-73
2022/06/07 07:31:30;;;;;;;;;1.75;1.75;;;;;20.14;64.95;100617.56;4974414;28;47119;-73
2022/06/07 07:33:57;;;;;;;;;1.25;0.25;;;;;20.22;64.77;100619.63;4973445;28;45385;-72
2022/06/07 07:36:22;;;;;;;;;1.25;1.25;;;;;20.19;64.55;100606.53;4973525;28;45417;-71
2022/06/07 07:38:48;;;;;;;;;1.25;0.50;;;;;20.43;63.77;100617.06;4973617;28;45318;-70
2022/06/07 07:41:27;;;;;;;;;0.00;0.00;;;;;20.51;63.35;100622.63;4972209;28;46646;-71
2022/06/07 07:43:54;;;;;;;;;0.00;0.00;;;;;20.70;62.82;100626.44;4975282;28;45297;-72
2022/06/07 07:46:23;;;;;;;;;1.00;1.00;;;;;20.91;61.53;100617.66;4974499;28;45543;-69
2022/06/07 07:48:48;;;;;;;;;0.00;0.00;;;;;20.92;60.25;100605.97;4975247;28;45406;-70
2022/06/07 07:51:18;;;;;;;;;0.00;0.00;;;;;21.01;60.07;100622.13;4974405;28;46281;-71
2022/06/07 07:53:44;;;;;;;;;1.00;1.00;;;;;20.90;60.09;100608.81;4973382;28;45289;-71
2022/06/07 07:56:09;;;;;;;;;0.25;0.25;;;;;20.97;59.95;100622.47;4973835;28;45408;-76
2022/06/07 07:58:35;;;;;;;;;2.00;2.00;;;;;20.99;60.13;100633.91;4973897;28;45505;-71
2022/06/07 08:01:08;;;;;;;;;3.00;2.00;;;;;20.92;59.50;100620.22;4975263;28;45473;-70
2022/06/07 08:03:34;;;;;;;;;1.25;1.00;;;;;20.85;59.47;100625.22;4974623;28;45405;-72
2022/06/07 08:05:59;;;;;;;;;0.00;0.00;;;;;20.73;59.58;100635.09;4972888;28;45295;-72
2022/06/07 08:08:24;;;;;;;;;0.00;0.00;;;;;20.60;59.65;100625.50;4974476;28;45321;-71
2022/06/07 08:10:50;;;;;;;;;0.25;0.25;;;;;20.56;60.46;100630.25;4974890;28;49062;-71
2022/06/07 08:13:15;;;;;;;;;1.50;1.00;;;;;20.55;60.62;100632.09;4978065;28;45314;-71
2022/06/07 08:15:41;;;;;;;;;1.50;1.50;;;;;20.60;61.01;100622.84;4978080;28;45313;-70
2022/06/07 08:18:06;;;;;;;;;0.75;0.75;;;;;20.76;60.40;100625.94;4973910;28;45446;-70
2022/06/07 08:20:35;;;;;;;;;1.00;0.00;;;;;20.82;59.93;100627.31;4971579;28;47224;-71
2022/06/07 08:23:01;;;;;;;;;0.25;0.25;;;;;20.87;59.74;100630.44;4973187;28;45340;-70
2022/06/07 08:25:27;;;;;;;;;2.00;1.00;;;;;20.92;60.00;100628.22;4973991;28;45336;-72
2022/06/07 08:27:52;;;;;;;;;0.50;0.50;;;;;20.97;59.05;100625.16;4974803;28;45488;-73
2022/06/07 08:30:18;;;;;;;;;5.50;2.00;;;;;20.93;59.29;100621.91;4974394;28;45296;-74
2022/06/07 08:32:43;;;;;;;;;0.50;0.50;;;;;20.95;59.02;100622.63;4973839;28;45385;-70
2022/06/07 08:37:58;;;;;;;;;2.00;2.00;;;;;21.13;59.03;100620.22;4974934;28;45500;-70
2022/06/07 08:40:33;;;;;;;;;1.00;1.00;;;;;21.29;58.49;100621.63;4972664;28;45994;-71
2022/06/07 08:43:23;;;;;;;;;1.25;0.50;;;;;21.41;58.77;100617.88;4971580;28;45251;-72
2022/06/07 08:45:49;;;;;;;;;3.00;1.00;;;;;21.63;58.54;100617.84;4971790;28;45336;-72
2022/06/07 08:48:22;;;;;;;;;0.25;0.25;;;;;21.81;57.15;100620.78;4974982;28;45564;-70
2022/06/07 08:51:00;;;;;;;;;0.50;0.50;;;;;21.91;56.96;100616.31;4974432;27;46369;-72
2022/06/07 08:53:35;;;;;;;;;2.00;2.00;;;;;21.97;56.15;100602.41;4975084;28;45423;-70
2022/06/07 08:56:05;;;;;;;;;2.00;2.00;;;;;22.23;55.93;100617.13;4973703;28;45344;-71
2022/06/07 08:58:37;;;;;;;;;3.25;2.00;;;;;22.36;55.99;100611.53;4974189;28;45261;-71
2022/06/07 09:01:29;;;;;;;;;4.00;4.00;;;;;22.54;55.14;100606.34;4973234;28;45505;-72
2022/06/07 09:04:19;;;;;;;;;4.00;4.00;;;;;22.67;54.55;100606.94;4972498;28;45282;-71
2022/06/07 09:06:52;;;;;;;;;1.00;1.00;;;;;22.85;54.58;100604.41;4973540;28;45373;-71
2022/06/07 09:09:19;;;;;;;;;3.25;2.00;;;;;23.03;53.38;100609.91;4974424;28;45313;-72
2022/06/07 09:12:10;;;;;;;;;2.00;2.00;;;;;23.13;52.83;100615.25;4971553;28;47243;-71
2022/06/07 09:14:47;;;;;;;;;1.00;1.00;;;;;23.14;51.34;100611.59;4973184;28;45433;-74
2022/06/07 09:17:41;;;;;;;;;2.00;2.00;;;;;22.95;50.92;100607.09;4973279;28;45450;-70
2022/06/07 09:20:14;;;;;;;;;2.00;1.00;;;;;22.79;51.62;100612.16;4968315;28;45386;-71
2022/06/07 09:22:50;;;;;;;;;1.25;1.25;;;;;22.73;51.24;100614.41;4975540;28;45354;-75
2022/06/07 09:25:23;;;;;;;;;1.00;1.00;;;;;22.68;51.86;100605.13;4976079;28;45453;-73
2022/06/07 09:27:49;;;;;;;;;2.50;2.50;;;;;22.61;51.71;100604.81;4972992;28;45442;-74
2022/06/07 09:30:26;;;;;;;;;3.50;3.00;;;;;22.63;52.45;100610.88;4972486;28;45342;-73
2022/06/07 09:32:52;;;;;;;;;2.00;0.50;;;;;22.68;52.01;100615.84;4970503;28;46049;-73
2022/06/07 09:35:33;;;;;;;;;2.00;1.25;;;;;22.74;51.72;100615.28;4972912;28;45453;-73
2022/06/07 09:38:04;;;;;;;;;0.25;0.25;;;;;22.84;51.36;100601.88;4972318;28;45463;-73
2022/06/07 09:40:41;;;;;;;;;1.00;1.00;;;;;22.92;51.08;100607.38;4972094;28;45244;-72
2022/06/07 09:43:12;;;;;;;;;0.25;0.25;;;;;23.03;50.69;100614.41;4972299;28;46346;-74
2022/06/07 09:45:51;;;;;;;;;3.00;3.00;;;;;23.08;50.81;100603.28;4972068;28;45402;-73
2022/06/07 09:48:19;;;;;;;;;1.75;1.75;;;;;23.24;49.73;100608.06;4972507;28;45355;-73
2022/06/07 09:50:55;;;;;;;;;0.75;0.75;;;;;23.40;49.37;100605.66;4975515;28;45331;-75
2022/06/07 09:53:22;;;;;;;;;0.50;0.50;;;;;23.55;49.50;100597.13;4972147;28;46207;-72
2022/06/07 09:56:05;;;;;;;;;0.00;0.00;;;;;23.80;49.00;100595.59;4972465;28;45452;-71
2022/06/07 09:58:42;;;;;;;;;1.75;1.75;;;;;24.05;47.89;100593.28;4973335;28;45364;-75
2022/06/07 10:01:41;;;;;;;;;2.25;2.25;;;;;23.96;47.25;100597.66;4975976;28;45413;-72
2022/06/07 10:04:24;;;;;;;;;3.00;1.00;;;;;23.92;46.88;100598.97;4974465;28;46133;-72
2022/06/07 10:06:56;;;;;;;;;0.50;0.25;;;;;23.97;48.51;100604.72;4974434;28;45483;-72
2022/06/07 10:09:46;;;;;;;;;0.00;0.00;;;;;24.13;48.18;100590.69;4974868;28;45370;-72
2022/06/07 10:12:26;;;;;;;;;2.25;0.50;;;;;24.31;47.51;100592.56;4976920;28;45252;-72
2022/06/07 10:15:27;;;;;;;;;3.25;3.25;;;;;24.55;47.47;100594.66;4976518;28;45469;-73
2022/06/07 10:18:00;;;;;;;;;4.00;2.00;;;;;24.62;47.41;100595.75;4975805;28;46161;-70
2022/06/07 10:21:05;;;;;;;;;0.75;0.00;;;;;24.69;46.42;100601.31;4977662;28;45290;-73
2022/06/07 10:23:52;;;;;;;;;1.75;1.50;;;;;24.38;46.64;100592.78;4976466;28;45233;-74
2022/06/07 10:26:32;;;;;;;;;2.00;2.00;;;;;23.99;46.93;100596.53;4975928;28;46214;-72
2022/06/07 10:29:43;;;;;;;;;2.00;2.00;;;;;23.80;47.56;100595.59;4975873;28;45275;-73
2022/06/07 10:32:46;;;;;;;;;3.50;3.50;;;;;23.58;47.89;100586.94;4965349;28;45511;-73
2022/06/07 10:35:21;;;;;;;;;1.00;1.00;;;;;23.43;47.67;100596.44;4976323;28;45305;-73
2022/06/07 10:37:53;;;;;;;;;4.50;3.00;;;;;23.45;47.75;100598.00;4974632;28;45202;-75
2022/06/07 10:40:34;;;;;;;;;1.00;1.00;;;;;23.54;44.39;100598.13;4975153;28;45399;-73
2022/06/07 10:42:59;;;;;;;;;0.75;0.25;;;;;23.49;44.51;100588.69;4973349;28;45218;-75
2022/06/07 10:45:33;;;;;;;;;6.00;5.50;;;;;23.31;45.54;100579.66;4974865;28;45362;-70
2022/06/07 10:48:19;;;;;;;;;0.75;0.75;;;;;23.09;46.02;100578.13;4974699;28;45570;-74
2022/06/07 10:51:06;;;;;;;;;1.00;1.00;;;;;22.90;46.34;100580.69;4974485;28;45483;-72
2022/06/07 10:53:46;;;;;;;;;1.00;1.00;;;;;22.82;45.68;100583.25;4972915;28;45320;-72
2022/06/07 10:56:19;;;;;;;;;2.00;2.00;;;;;22.79;45.96;100580.84;4975777;28;45266;-73
2022/06/07 10:58:52;;;;;;;;;2.00;2.00;;;;;22.96;46.23;100579.28;4974893;28;45948;-71
2022/06/07 11:01:40;;;;;;;;;3.25;1.00;;;;;23.14;45.44;100578.56;4974736;28;45392;-72
2022/06/07 11:10:11;;;;;;;;;2.00;1.00;;;;;23.49;45.38;100582.44;4973059;28;45751;-74
2022/06/07 11:12:44;;;;;;;;;0.50;0.50;;;;;23.32;45.54;100573.31;4973967;28;45403;-73
2022/06/07 11:15:33;;;;;;;;;2.75;2.75;;;;;23.26;45.01;100577.44;4974363;28;45444;-76
2022/06/07 11:18:04;;;;;;;;;0.75;0.75;;;;;23.26;44.82;100581.94;4964573;28;45403;-71
2022/06/07 11:20:32;;;;;;;;;1.00;1.00;;;;;23.33;44.66;100583.06;4974504;28;45427;-71
2022/06/07 11:23:19;;;;;;;;;4.25;3.00;;;;;23.61;44.98;100575.06;4974381;28;45490;-71
2022/06/07 11:26:04;;;;;;;;;1.75;1.75;;;;;23.97;45.03;100577.88;4974775;28;45328;-73
2022/06/07 11:28:38;;;;;;;;;3.25;3.25;;;;;24.03;44.79;100573.78;4974809;28;45185;-71
2022/06/07 11:31:41;;;;;;;;;3.75;2.00;;;;;23.85;45.03;100579.88;4973881;28;47291;-73
2022/06/07 11:34:27;;;;;;;;;1.50;1.00;;;;;23.63;44.75;100575.78;4974044;28;45404;-72
2022/06/07 11:37:02;;;;;;;;;3.75;3.75;;;;;23.57;44.54;100582.56;4974906;28;45347;-72
2022/06/07 11:39:32;;;;;;;;;3.00;1.75;;;;;23.56;44.60;100580.88;4974823;28;45329;-73
2022/06/07 11:42:06;;;;;;;;;0.00;0.00;;;;;23.59;45.04;100579.75;4974184;28;45249;-73
2022/06/07 11:44:42;;;;;;;;;5.75;4.00;;;;;23.61;45.29;100572.38;4974367;28;45280;-71
2022/06/07 11:47:08;;;;;;;;;3.75;2.75;;;;;23.73;45.35;100579.25;4976234;28;45787;-72
2022/06/07 11:49:57;;;;;;;;;2.00;2.00;;;;;23.96;44.76;100561.91;4977061;28;45542;-74
2022/06/07 11:52:29;;;;;;;;;5.75;5.00;;;;;24.24;43.96;100570.81;4977885;28;45960;-71
2022/06/07 11:55:17;;;;;;;;;4.50;4.50;;;;;24.43;43.37;100567.16;4974229;28;45391;-72
2022/06/07 11:58:04;;;;;;;;;2.00;2.00;;;;;24.67;43.30;100563.00;4975667;28;45413;-72
2022/06/07 12:00:29;;;;;;;;;1.00;1.00;;;;;24.71;42.76;100561.69;4975542;28;45434;-72
2022/06/07 12:02:57;;;;;;;;;1.00;1.00;;;;;24.75;42.76;100565.78;4974869;28;45351;-73